首页
METAR-TAF:

METAR-TAF

机场 :

莱昂, 墨西哥

纬度: 21-00N, 经度: 101-29W, 海拔: 1819米

当前天气观测

该预报发布于1小时和20分钟前的02:43 UTC
风速11节,风向东转东北
温度 22°C
湿度 60%
气压 1020 hPa
能見度: 12.9公里
散云层高于3000英尺
散云层高于8000英尺
多云层高于22000英尺

METAR: MMLO 220243Z 07011KT 8SM SCT030 SCT080 BKN220 22/14 A3013 RMK SLP060 52015 993 8/463

时间: 23:03 (04:03 UTC)

预报

该预报发布于11小时和23分钟前的16:40 UTC
预报有效从21日的 18点(UTC)到 22日的 18点(UTC)
风速10节,风向
能見度: 10公里
散云层高于3000英尺
成为
从 21日的 20点(UTC)到 21日的 22点(UTC)
风速15节,风向
多云层高于3000英尺
短暂存在
从 21日的 23点(UTC)到 22日的 03点(UTC)
能見度: 6.4公里
多云层高于3000英尺, 积雨云.
阴天层高于10000英尺
从 22日的 0400点(UTC)
风速5节,风向东转东北
能見度: 10公里
散云层高于3000英尺
多云层高于10000英尺
成为
从 22日的 17点(UTC)到 22日的 18点(UTC)
风速8节,风向

TAF: MMLO 211640Z 2118/2218 08010KT P6SM SCT030 BECMG 2120/2122 08015KT BKN030 TEMPO 2123/2203 4SM RA BKN030CB OVC100 FM220400 06005KT P6SM SCT030 BKN100 BECMG 2217/2218 08008KT

超过4000个机场的气象观测和天气预报(METAR&TAF报告)。

可查询的气象台以黄色和红色小点在地图上表示。

将鼠标移到小点上方,可查看气象台名称。

然后点击查看天气观测和预报。

如需切换地图:点击带黑十字的绿色按钮放大地图;点击带横线的绿色按钮缩小地图;或者点击绿色箭头查看邻近地区的地图。


METAR-TAF: